createdAt,value
2023-03-17T00:02:12.008Z,7.20
2023-03-17T00:04:40.331Z,7.20
2023-03-17T00:07:09.171Z,7.20
2023-03-17T00:09:37.592Z,7.20
2023-03-17T00:12:12.067Z,7.10
2023-03-17T00:14:40.882Z,7.10
2023-03-17T00:17:14.358Z,7.10
2023-03-17T00:19:44.751Z,7.10
2023-03-17T00:22:18.838Z,7.10
2023-03-17T00:24:46.794Z,7.10
2023-03-17T00:27:17.913Z,7.10
2023-03-17T00:29:47.175Z,7.10
2023-03-17T00:32:18.357Z,7.10
2023-03-17T00:34:47.448Z,7.10
2023-03-17T00:37:15.384Z,7.10
2023-03-17T00:39:44.177Z,7.20
2023-03-17T00:42:13.287Z,7.10
2023-03-17T00:44:42.749Z,7.10
2023-03-17T00:47:13.341Z,7.10
2023-03-17T00:49:41.358Z,7.10
2023-03-17T00:52:10.306Z,7.10
2023-03-17T00:54:40.061Z,7.10
2023-03-17T00:57:11.312Z,7.10
2023-03-17T00:59:43.378Z,7.20
2023-03-17T01:02:15.507Z,7.20
2023-03-17T01:04:49.943Z,7.10
2023-03-17T01:07:22.934Z,7.20
2023-03-17T01:09:51.280Z,7.20
2023-03-17T01:12:20.357Z,7.10
2023-03-17T01:14:49.820Z,7.20
2023-03-17T01:17:19.675Z,7.20
2023-03-17T01:19:48.650Z,7.20
2023-03-17T01:22:16.702Z,7.20
2023-03-17T01:24:47.971Z,7.20
2023-03-17T01:27:16.436Z,7.20
2023-03-17T01:29:44.868Z,7.20
2023-03-17T01:32:14.588Z,7.10
2023-03-17T01:34:42.842Z,7.10
2023-03-17T01:37:11.517Z,7.10
2023-03-17T01:39:40.091Z,7.10
2023-03-17T01:42:09.492Z,7.10
2023-03-17T01:44:57.508Z,7.10
2023-03-17T01:47:29.460Z,7.10
2023-03-17T01:50:00.511Z,7.00
2023-03-17T01:52:29.937Z,7.00
2023-03-17T01:55:12.478Z,7.00
2023-03-17T01:57:47.159Z,7.00
2023-03-17T02:00:20.369Z,7.00
2023-03-17T02:02:51.598Z,7.00
2023-03-17T02:05:25.409Z,7.00
2023-03-17T02:07:54.604Z,7.00
2023-03-17T02:10:25.161Z,7.00
2023-03-17T02:12:56.817Z,7.00
2023-03-17T02:15:26.099Z,6.90
2023-03-17T02:17:55.380Z,6.90
2023-03-17T02:21:15.562Z,6.90
2023-03-17T02:23:46.694Z,6.90
2023-03-17T02:26:14.796Z,6.80
2023-03-17T02:28:46.214Z,6.80
2023-03-17T02:31:14.560Z,6.70
2023-03-17T02:33:43.853Z,6.60
2023-03-17T02:36:11.855Z,6.60
2023-03-17T02:38:40.205Z,6.50
2023-03-17T02:41:10.070Z,6.50
2023-03-17T02:43:38.381Z,6.10
2023-03-17T02:46:09.570Z,6.40
2023-03-17T02:48:39.122Z,6.30
2023-03-17T02:51:07.806Z,6.20
2023-03-17T02:53:36.706Z,6.20
2023-03-17T02:56:05.565Z,6.20
2023-03-17T02:58:37.673Z,6.10
2023-03-17T03:01:06.230Z,6.10
2023-03-17T03:03:34.486Z,6.00
2023-03-17T03:06:03.242Z,6.00
2023-03-17T03:08:31.693Z,6.00
2023-03-17T03:11:02.512Z,5.90
2023-03-17T03:13:31.230Z,5.90
2023-03-17T03:16:01.129Z,5.90
2023-03-17T03:18:29.390Z,5.80
2023-03-17T03:20:57.680Z,5.80
2023-03-17T03:23:25.495Z,5.80
2023-03-17T03:25:53.912Z,5.70
2023-03-17T03:28:23.213Z,5.70
2023-03-17T03:30:54.119Z,5.70
2023-03-17T03:33:39.025Z,5.60
2023-03-17T03:36:08.141Z,5.60
2023-03-17T03:38:36.856Z,5.60
2023-03-17T03:41:04.990Z,5.60
2023-03-17T03:43:33.187Z,5.50
2023-03-17T03:46:02.653Z,5.60
2023-03-17T03:48:31.244Z,5.50
2023-03-17T03:51:05.004Z,5.50
2023-03-17T03:53:33.076Z,5.50
2023-03-17T03:56:02.041Z,5.50
2023-03-17T03:58:31.403Z,5.40
2023-03-17T04:00:59.508Z,5.40
2023-03-17T04:03:28.044Z,5.40
2023-03-17T04:05:56.003Z,5.30
2023-03-17T04:08:25.850Z,5.20
2023-03-17T04:10:54.073Z,5.20
2023-03-17T04:13:22.287Z,5.40
2023-03-17T04:15:50.300Z,5.10
2023-03-17T04:18:19.698Z,5.10
2023-03-17T04:20:50.655Z,5.00
2023-03-17T04:23:19.065Z,5.00
2023-03-17T04:25:51.628Z,4.90
2023-03-17T04:28:20.002Z,4.90
2023-03-17T04:30:48.725Z,4.90
2023-03-17T04:33:17.662Z,4.80
2023-03-17T04:35:47.592Z,4.90
2023-03-17T04:38:15.749Z,4.80
2023-03-17T04:40:46.272Z,4.80
2023-03-17T04:43:17.092Z,4.70
2023-03-17T04:45:45.137Z,4.70
2023-03-17T04:48:13.455Z,4.60
2023-03-17T04:50:42.404Z,4.80
2023-03-17T04:53:10.812Z,4.10
2023-03-17T04:55:39.755Z,4.50
2023-03-17T04:58:11.670Z,4.50
2023-03-17T05:00:44.264Z,4.40
2023-03-17T05:03:26.004Z,4.40
2023-03-17T05:05:58.772Z,4.40
2023-03-17T05:08:30.135Z,4.40
2023-03-17T05:10:59.380Z,4.30
2023-03-17T05:13:28.600Z,4.30
2023-03-17T05:16:02.972Z,4.10
2023-03-17T05:18:31.534Z,4.10
2023-03-17T05:20:59.525Z,4.10
2023-03-17T05:23:30.148Z,4.00
2023-03-17T05:26:00.251Z,4.00
2023-03-17T05:28:29.322Z,3.90
2023-03-17T05:30:59.296Z,3.80
2023-03-17T05:33:27.884Z,3.80
2023-03-17T05:35:56.211Z,3.80
2023-03-17T05:38:26.124Z,3.80
2023-03-17T05:40:54.758Z,3.70
2023-03-17T05:43:23.897Z,3.70
2023-03-17T05:45:52.657Z,3.60
2023-03-17T05:48:22.818Z,3.60
2023-03-17T05:50:52.331Z,3.60
2023-03-17T05:53:21.178Z,3.50
2023-03-17T05:55:49.372Z,3.50
2023-03-17T05:58:18.293Z,3.40
2023-03-17T06:00:47.645Z,3.40
2023-03-17T06:03:15.669Z,3.40
2023-03-17T06:05:45.866Z,3.40
2023-03-17T06:08:17.291Z,3.40
2023-03-17T06:10:46.449Z,3.40
2023-03-17T06:13:14.480Z,3.40
2023-03-17T06:15:44.381Z,3.40
2023-03-17T06:18:12.646Z,3.50
2023-03-17T06:20:41.490Z,3.50
2023-03-17T06:23:11.758Z,3.60
2023-03-17T06:25:39.836Z,3.60
2023-03-17T06:28:07.913Z,3.60
2023-03-17T06:30:40.870Z,3.60
2023-03-17T06:33:10.338Z,3.70
2023-03-17T06:35:39.406Z,3.70
2023-03-17T06:38:07.755Z,3.80
2023-03-17T06:40:40.859Z,3.90
2023-03-17T06:43:10.546Z,4.00
2023-03-17T06:45:38.788Z,4.10
2023-03-17T06:48:09.598Z,4.20
2023-03-17T06:50:38.292Z,4.30
2023-03-17T06:53:08.580Z,4.50
2023-03-17T06:58:25.111Z,5.10
2023-03-17T07:00:57.070Z,4.90
2023-03-17T07:03:26.604Z,5.10
2023-03-17T07:05:59.334Z,5.80
2023-03-17T07:08:35.683Z,5.40
2023-03-17T07:11:11.539Z,5.60
2023-03-17T07:13:42.079Z,5.80
2023-03-17T07:16:16.960Z,6.10
2023-03-17T07:18:48.545Z,6.80
2023-03-17T07:21:23.644Z,6.30
2023-03-17T07:23:57.975Z,6.50
2023-03-17T07:26:28.285Z,6.80
2023-03-17T07:28:56.468Z,6.80
2023-03-17T07:31:25.623Z,7.00
2023-03-17T07:33:57.274Z,7.10
2023-03-17T07:36:28.018Z,7.20
2023-03-17T07:38:59.085Z,7.50
2023-03-17T07:41:29.142Z,7.40
2023-03-17T07:43:58.412Z,7.60
2023-03-17T07:46:29.136Z,7.70
2023-03-17T07:49:05.886Z,7.90
2023-03-17T07:51:35.237Z,8.10
2023-03-17T07:54:06.797Z,8.20
2023-03-17T07:56:37.307Z,8.30
2023-03-17T07:59:06.538Z,8.50
2023-03-17T08:01:36.050Z,8.70
2023-03-17T08:04:07.513Z,8.90
2023-03-17T08:06:35.834Z,9.00
2023-03-17T08:09:06.442Z,9.20
2023-03-17T08:11:34.337Z,9.30
2023-03-17T08:14:05.294Z,9.50
2023-03-17T08:16:34.390Z,9.60
2023-03-17T08:19:04.183Z,9.80
2023-03-17T08:21:32.505Z,10.00
2023-03-17T08:24:02.649Z,10.10
2023-03-17T08:26:31.579Z,10.10
2023-03-17T08:29:01.302Z,10.10
2023-03-17T08:31:31.244Z,10.30
2023-03-17T08:33:59.492Z,10.40
2023-03-17T08:36:29.631Z,10.50
2023-03-17T08:38:57.665Z,10.40
2023-03-17T08:41:28.184Z,10.40
2023-03-17T08:43:57.005Z,10.50
2023-03-17T08:46:27.548Z,10.50
2023-03-17T08:49:00.888Z,10.50
2023-03-17T08:51:31.686Z,10.70
2023-03-17T08:54:00.644Z,10.80
2023-03-17T08:56:29.622Z,11.00
2023-03-17T08:58:58.491Z,11.00
2023-03-17T09:01:27.334Z,11.10
2023-03-17T09:03:56.677Z,11.30
2023-03-17T09:06:27.613Z,11.40
2023-03-17T09:08:56.090Z,11.50
2023-03-17T09:11:28.072Z,11.30
2023-03-17T09:13:56.593Z,11.40
2023-03-17T09:16:29.843Z,11.60
2023-03-17T09:18:57.770Z,11.60
2023-03-17T09:21:27.799Z,11.60
2023-03-17T09:23:56.802Z,11.40
2023-03-17T09:26:34.450Z,11.40
2023-03-17T09:29:03.813Z,11.40
2023-03-17T09:31:32.938Z,11.50
2023-03-17T09:34:01.414Z,11.70
2023-03-17T09:36:33.092Z,12.00
2023-03-17T09:39:01.860Z,12.00
2023-03-17T09:41:52.807Z,12.00
2023-03-17T09:44:36.032Z,12.20
2023-03-17T09:47:17.556Z,12.20
2023-03-17T09:49:48.579Z,12.40
2023-03-17T09:52:23.107Z,12.50
2023-03-17T09:54:51.378Z,12.60
2023-03-17T09:57:26.216Z,12.70
2023-03-17T10:00:01.611Z,12.80
2023-03-17T10:02:33.007Z,12.80
2023-03-17T10:05:08.553Z,13.00
2023-03-17T10:07:46.369Z,13.10
2023-03-17T10:10:20.239Z,13.30
2023-03-17T10:12:58.312Z,13.60
2023-03-17T10:15:33.048Z,13.60
2023-03-17T10:18:10.164Z,13.80
2023-03-17T10:20:55.461Z,14.00
2023-03-17T10:23:28.698Z,14.40
2023-03-17T10:25:58.817Z,14.40
2023-03-17T10:28:30.784Z,14.50
2023-03-17T10:31:07.734Z,14.60
2023-03-17T10:33:36.433Z,14.50
2023-03-17T10:36:09.723Z,14.90
2023-03-17T10:38:39.120Z,15.00
2023-03-17T10:41:10.668Z,15.00
2023-03-17T10:43:46.023Z,15.10
2023-03-17T10:46:21.602Z,15.20
2023-03-17T10:48:56.252Z,14.80
2023-03-17T10:51:32.079Z,15.20
2023-03-17T10:54:07.288Z,15.30
2023-03-17T10:56:37.459Z,15.50
2023-03-17T10:59:17.130Z,15.80
2023-03-17T11:01:54.140Z,15.80
2023-03-17T11:04:31.583Z,16.10
2023-03-17T11:07:07.766Z,16.40
2023-03-17T11:09:38.651Z,15.90
2023-03-17T11:12:08.845Z,15.90
2023-03-17T11:17:19.001Z,16.20
2023-03-17T11:19:55.639Z,16.00
2023-03-17T11:22:31.514Z,16.00
2023-03-17T11:25:12.433Z,15.60
2023-03-17T11:27:49.925Z,15.30
2023-03-17T11:30:24.163Z,15.80
2023-03-17T11:33:04.330Z,15.90
2023-03-17T11:35:47.509Z,16.10
2023-03-17T11:38:27.166Z,16.20
2023-03-17T11:41:15.261Z,16.60
2023-03-17T11:43:59.198Z,16.70
2023-03-17T11:46:31.654Z,17.40
2023-03-17T11:49:09.230Z,17.30
2023-03-17T11:51:46.921Z,17.00
2023-03-17T11:54:24.014Z,17.10
2023-03-17T11:56:56.835Z,16.80
2023-03-17T11:59:37.497Z,16.90
2023-03-17T12:02:17.763Z,16.90
2023-03-17T12:04:53.587Z,16.40
2023-03-17T12:07:25.903Z,16.40
2023-03-17T12:10:06.470Z,16.20
2023-03-17T12:12:41.073Z,16.50
2023-03-17T12:15:18.101Z,16.30
2023-03-17T12:17:52.063Z,16.40
2023-03-17T12:20:26.155Z,16.30
2023-03-17T12:22:58.261Z,16.50
2023-03-17T12:25:34.937Z,16.60
2023-03-17T12:28:09.212Z,16.40
2023-03-17T12:30:47.529Z,16.60
2023-03-17T12:33:25.021Z,16.70
2023-03-17T12:35:53.717Z,16.70
2023-03-17T12:38:29.031Z,16.80
2023-03-17T12:41:19.021Z,16.80
2023-03-17T12:44:01.484Z,16.90
2023-03-17T12:46:44.697Z,17.00
2023-03-17T12:49:34.477Z,17.10
2023-03-17T12:52:14.556Z,17.10
2023-03-17T12:54:48.226Z,17.00
2023-03-17T12:57:20.143Z,17.20
2023-03-17T12:59:55.427Z,17.10
2023-03-17T13:02:36.555Z,17.00
2023-03-17T13:05:09.291Z,17.20
2023-03-17T13:07:42.986Z,17.30
2023-03-17T13:10:39.717Z,17.60
2023-03-17T13:13:23.280Z,17.90
2023-03-17T13:15:59.277Z,17.50
2023-03-17T13:19:07.738Z,17.40
2023-03-17T13:21:39.098Z,17.50
2023-03-17T13:24:36.069Z,17.40
2023-03-17T13:27:05.888Z,17.60
2023-03-17T13:29:47.149Z,17.20
2023-03-17T13:32:40.085Z,17.40
2023-03-17T13:35:22.978Z,17.30
2023-03-17T13:38:14.502Z,17.20
2023-03-17T13:40:52.557Z,17.40
2023-03-17T13:43:43.609Z,17.40
2023-03-17T13:46:22.435Z,17.50
2023-03-17T13:48:53.853Z,17.60
2023-03-17T13:51:24.966Z,17.50
2023-03-17T13:53:59.563Z,17.40
2023-03-17T13:56:48.904Z,17.50
2023-03-17T13:59:18.783Z,17.50
2023-03-17T14:01:51.111Z,17.50
2023-03-17T14:04:24.184Z,17.40
2023-03-17T14:06:54.673Z,17.40
2023-03-17T14:09:35.289Z,17.40
2023-03-17T14:12:07.634Z,17.30
2023-03-17T14:14:43.388Z,17.40
2023-03-17T14:17:17.872Z,17.60
2023-03-17T14:20:06.650Z,17.60
2023-03-17T14:22:43.822Z,17.60
2023-03-17T14:25:19.657Z,17.50
2023-03-17T14:27:52.980Z,17.40
2023-03-17T14:30:23.986Z,17.20
2023-03-17T14:32:57.621Z,17.10
2023-03-17T14:35:31.375Z,17.10
2023-03-17T14:38:01.081Z,17.00
2023-03-17T14:40:39.377Z,17.10
2023-03-17T14:43:07.321Z,17.00
2023-03-17T14:45:49.197Z,17.00
2023-03-17T14:48:22.275Z,16.90
2023-03-17T14:50:52.956Z,16.80
2023-03-17T14:53:24.072Z,16.80
2023-03-17T14:55:53.923Z,16.70
2023-03-17T14:58:25.763Z,16.60
2023-03-17T15:00:59.466Z,16.60
2023-03-17T15:03:31.597Z,16.60
2023-03-17T15:06:25.534Z,16.50
2023-03-17T15:08:55.821Z,16.60
2023-03-17T15:11:27.687Z,16.70
2023-03-17T15:14:07.039Z,16.60
2023-03-17T15:16:37.309Z,16.70
2023-03-17T15:19:08.799Z,16.70
2023-03-17T15:21:41.517Z,16.80
2023-03-17T15:24:32.010Z,16.90
2023-03-17T15:27:04.142Z,16.90
2023-03-17T15:29:32.799Z,17.00
2023-03-17T15:32:08.079Z,17.00
2023-03-17T15:37:07.828Z,16.90
2023-03-17T15:39:36.056Z,16.80
2023-03-17T15:42:07.001Z,16.80
2023-03-17T15:44:36.255Z,16.70
2023-03-17T15:47:06.958Z,16.50
2023-03-17T15:49:35.891Z,16.50
2023-03-17T15:52:12.690Z,16.10
2023-03-17T15:54:41.109Z,15.90
2023-03-17T15:57:10.682Z,15.80
2023-03-17T15:59:45.979Z,15.70
2023-03-17T16:02:28.846Z,15.60
2023-03-17T16:05:01.438Z,15.60
2023-03-17T16:07:31.422Z,15.60
2023-03-17T16:09:59.469Z,15.50
2023-03-17T16:12:28.398Z,15.50
2023-03-17T16:14:56.668Z,15.50
2023-03-17T16:17:29.980Z,15.40
2023-03-17T16:19:59.732Z,15.30
2023-03-17T16:22:41.773Z,15.40
2023-03-17T16:25:23.787Z,15.30
2023-03-17T16:27:53.178Z,15.20
2023-03-17T16:30:26.208Z,15.20
2023-03-17T16:32:54.636Z,15.10
2023-03-17T16:35:26.154Z,15.10
2023-03-17T16:37:56.018Z,15.00
2023-03-17T16:40:29.302Z,15.00
2023-03-17T16:42:58.808Z,14.90
2023-03-17T16:45:32.670Z,14.90
2023-03-17T16:48:02.625Z,14.90
2023-03-17T16:50:35.287Z,14.90
2023-03-17T16:53:04.623Z,14.80
2023-03-17T16:55:32.942Z,14.80
2023-03-17T16:58:07.457Z,14.70
2023-03-17T17:00:36.793Z,14.70
2023-03-17T17:03:04.905Z,14.70
2023-03-17T17:05:36.161Z,14.60
2023-03-17T17:08:06.342Z,14.50
2023-03-17T17:10:35.159Z,14.50
2023-03-17T17:13:07.061Z,14.50
2023-03-17T17:15:36.691Z,14.30
2023-03-17T17:18:07.949Z,14.20
2023-03-17T17:20:39.312Z,14.20
2023-03-17T17:23:13.676Z,14.10
2023-03-17T17:25:42.065Z,14.10
2023-03-17T17:28:11.870Z,14.00
2023-03-17T17:30:42.910Z,13.90
2023-03-17T17:33:11.578Z,13.90
2023-03-17T17:35:42.102Z,13.80
2023-03-17T17:38:19.129Z,13.80
2023-03-17T17:40:47.473Z,13.70
2023-03-17T17:43:18.306Z,13.60
2023-03-17T17:45:49.208Z,13.60
2023-03-17T17:48:20.102Z,13.50
2023-03-17T17:50:50.971Z,13.50
2023-03-17T17:53:20.772Z,13.40
2023-03-17T17:55:52.616Z,13.30
2023-03-17T17:58:23.570Z,13.20
2023-03-17T18:00:54.076Z,13.30
2023-03-17T18:03:25.161Z,13.20
2023-03-17T18:05:54.466Z,13.20
2023-03-17T18:08:25.258Z,13.10
2023-03-17T18:13:24.160Z,12.90
2023-03-17T18:15:55.157Z,13.00
2023-03-17T18:18:24.361Z,13.00
2023-03-17T18:20:53.860Z,13.00
2023-03-17T18:23:25.225Z,13.00
2023-03-17T18:25:59.732Z,12.90
2023-03-17T18:28:28.488Z,12.90
2023-03-17T18:31:06.156Z,12.90
2023-03-17T18:33:34.399Z,12.90
2023-03-17T18:36:05.999Z,12.80
2023-03-17T18:38:38.740Z,12.80
2023-03-17T18:41:11.043Z,12.70
2023-03-17T18:43:40.983Z,12.70
2023-03-17T18:46:09.869Z,12.70
2023-03-17T18:48:38.820Z,12.60
2023-03-17T18:51:07.341Z,12.60
2023-03-17T18:53:38.247Z,12.50
2023-03-17T18:56:09.108Z,12.50
2023-03-17T18:58:37.583Z,12.50
2023-03-17T19:01:06.281Z,12.40
2023-03-17T19:03:34.762Z,12.40
2023-03-17T19:06:09.968Z,12.30
2023-03-17T19:08:39.572Z,12.30
2023-03-17T19:11:10.854Z,12.30
2023-03-17T19:13:39.454Z,12.20
2023-03-17T19:16:09.050Z,12.10
2023-03-17T19:18:41.743Z,12.10
2023-03-17T19:21:10.980Z,12.00
2023-03-17T19:23:41.728Z,11.90
2023-03-17T19:26:12.256Z,11.90
2023-03-17T19:28:42.770Z,11.80
2023-03-17T19:31:12.354Z,11.70
2023-03-17T19:33:40.576Z,11.70
2023-03-17T19:36:12.741Z,11.70
2023-03-17T19:38:43.538Z,11.70
2023-03-17T19:41:12.010Z,11.70
2023-03-17T19:43:41.733Z,11.70
2023-03-17T19:46:10.915Z,11.70
2023-03-17T19:48:39.263Z,11.70
2023-03-17T19:51:08.101Z,11.70
2023-03-17T19:53:37.390Z,11.60
2023-03-17T19:56:08.123Z,11.70
2023-03-17T19:58:37.466Z,11.70
2023-03-17T20:01:06.929Z,11.70
2023-03-17T20:03:35.973Z,11.70
2023-03-17T20:06:06.728Z,11.60
2023-03-17T20:08:35.622Z,11.60
2023-03-17T20:11:05.485Z,11.60
2023-03-17T20:13:36.224Z,11.60
2023-03-17T20:16:05.131Z,11.60
2023-03-17T20:18:33.772Z,11.60
2023-03-17T20:21:05.771Z,11.60
2023-03-17T20:23:35.548Z,11.60
2023-03-17T20:26:03.968Z,11.60
2023-03-17T20:28:32.645Z,11.60
2023-03-17T20:31:05.334Z,11.60
2023-03-17T20:33:34.283Z,11.60
2023-03-17T20:36:03.159Z,11.60
2023-03-17T20:38:33.252Z,11.50
2023-03-17T20:41:12.270Z,11.60
2023-03-17T20:43:40.570Z,11.60
2023-03-17T20:46:14.927Z,11.60
2023-03-17T20:48:45.593Z,11.50
2023-03-17T20:51:16.404Z,11.50
2023-03-17T20:53:46.243Z,11.50
2023-03-17T20:56:16.492Z,11.50
2023-03-17T20:58:45.338Z,11.50
2023-03-17T21:01:16.493Z,11.40
2023-03-17T21:03:46.301Z,11.40
2023-03-17T21:06:15.254Z,11.40
2023-03-17T21:08:45.595Z,11.40
2023-03-17T21:11:17.254Z,11.40
2023-03-17T21:13:45.514Z,11.30
2023-03-17T21:16:18.239Z,11.30
2023-03-17T21:18:46.514Z,11.40
2023-03-17T21:21:15.110Z,11.40
2023-03-17T21:23:43.450Z,11.40
2023-03-17T21:26:12.236Z,11.40
2023-03-17T21:28:42.328Z,11.40
2023-03-17T21:31:12.359Z,11.40
2023-03-17T21:33:42.161Z,11.40
2023-03-17T21:36:11.381Z,11.40
2023-03-17T21:38:41.177Z,11.40
2023-03-17T21:41:23.959Z,11.40
2023-03-17T21:43:51.998Z,11.30
2023-03-17T21:48:51.904Z,11.30
2023-03-17T21:51:20.138Z,11.40
2023-03-17T21:53:51.016Z,11.30
2023-03-17T21:56:20.408Z,11.30
2023-03-17T21:58:48.918Z,11.30
2023-03-17T22:01:17.969Z,11.40
2023-03-17T22:03:45.921Z,11.30
2023-03-17T22:06:18.848Z,11.40
2023-03-17T22:08:48.947Z,11.40
2023-03-17T22:11:18.822Z,11.40
2023-03-17T22:13:47.231Z,11.50
2023-03-17T22:16:17.496Z,11.50
2023-03-17T22:18:47.091Z,11.50
2023-03-17T22:21:17.861Z,11.50
2023-03-17T22:23:47.829Z,11.50
2023-03-17T22:26:17.177Z,11.60
2023-03-17T22:28:46.681Z,12.00
2023-03-17T22:31:16.791Z,11.50
2023-03-17T22:33:45.236Z,11.50
2023-03-17T22:36:13.613Z,11.50
2023-03-17T22:38:48.361Z,11.60
2023-03-17T22:41:18.641Z,11.50
2023-03-17T22:43:47.262Z,11.40
2023-03-17T22:46:16.218Z,11.50
2023-03-17T22:48:46.145Z,11.50
2023-03-17T22:51:16.965Z,11.50
2023-03-17T22:53:51.078Z,11.50
2023-03-17T22:56:21.718Z,11.70
2023-03-17T22:58:51.882Z,11.50
2023-03-17T23:01:23.856Z,11.50
2023-03-17T23:03:52.392Z,11.50
2023-03-17T23:06:21.035Z,11.50
2023-03-17T23:08:51.398Z,11.50
2023-03-17T23:11:23.141Z,11.40
2023-03-17T23:13:54.027Z,11.50
2023-03-17T23:16:23.055Z,11.50
2023-03-17T23:18:52.592Z,11.40
2023-03-17T23:21:25.053Z,11.40
2023-03-17T23:23:54.497Z,11.40
2023-03-17T23:26:22.782Z,11.40
2023-03-17T23:28:53.359Z,11.40
2023-03-17T23:31:24.805Z,11.40
2023-03-17T23:33:55.617Z,11.40
2023-03-17T23:36:23.575Z,11.40
2023-03-17T23:38:52.461Z,11.40
2023-03-17T23:41:24.038Z,11.40
2023-03-17T23:43:54.518Z,11.30
2023-03-17T23:46:22.574Z,11.30
2023-03-17T23:48:51.053Z,11.30
2023-03-17T23:51:19.370Z,11.20
2023-03-17T23:53:47.986Z,11.20
2023-03-17T23:56:20.809Z,11.20
2023-03-17T23:58:52.479Z,11.20
